createdAt,value
2023-04-18T00:01:21.597Z,9.33
2023-04-18T00:03:53.776Z,9.34
2023-04-18T00:06:22.714Z,9.33
2023-04-18T00:08:51.244Z,9.33
2023-04-18T00:11:19.659Z,9.36
2023-04-18T00:13:48.370Z,9.41
2023-04-18T00:16:16.841Z,9.44
2023-04-18T00:18:48.392Z,9.47
2023-04-18T00:21:17.076Z,9.47
2023-04-18T00:23:46.372Z,9.46
2023-04-18T00:26:14.885Z,9.45
2023-04-18T00:28:44.327Z,9.44
2023-04-18T00:31:12.869Z,9.41
2023-04-18T00:33:43.931Z,9.36
2023-04-18T00:36:12.319Z,9.31
2023-04-18T00:38:43.257Z,9.27
2023-04-18T00:41:11.786Z,9.26
2023-04-18T00:43:40.289Z,9.27
2023-04-18T00:46:11.121Z,9.24
2023-04-18T00:48:39.773Z,9.20
2023-04-18T00:51:12.370Z,9.14
2023-04-18T00:53:44.573Z,9.13
2023-04-18T00:56:13.271Z,9.14
2023-04-18T00:58:41.902Z,9.13
2023-04-18T01:01:13.666Z,9.12
2023-04-18T01:03:42.346Z,9.10
2023-04-18T01:06:11.107Z,9.06
2023-04-18T01:08:39.650Z,9.05
2023-04-18T01:11:08.126Z,9.04
2023-04-18T01:13:36.627Z,9.04
2023-04-18T01:16:07.706Z,9.05
2023-04-18T01:18:37.338Z,9.05
2023-04-18T01:21:08.386Z,9.08
2023-04-18T01:23:36.904Z,9.11
2023-04-18T01:26:05.947Z,9.12
2023-04-18T01:28:37.181Z,9.13
2023-04-18T01:31:06.029Z,9.17
2023-04-18T01:33:37.476Z,9.21
2023-04-18T01:36:06.500Z,9.24
2023-04-18T01:38:35.033Z,9.24
2023-04-18T01:41:04.160Z,9.22
2023-04-18T01:43:32.677Z,9.22
2023-04-18T01:46:01.231Z,9.22
2023-04-18T01:48:29.675Z,9.24
2023-04-18T01:50:58.146Z,9.24
2023-04-18T01:53:26.632Z,9.21
2023-04-18T01:55:55.082Z,9.17
2023-04-18T01:58:24.040Z,9.11
2023-04-18T02:00:57.792Z,9.06
2023-04-18T02:03:26.437Z,9.04
2023-04-18T02:05:55.111Z,9.04
2023-04-18T02:08:25.662Z,9.01
2023-04-18T02:10:57.018Z,8.93
2023-04-18T02:13:25.575Z,8.84
2023-04-18T02:15:54.010Z,8.77
2023-04-18T02:18:24.949Z,8.69
2023-04-18T02:20:53.582Z,8.65
2023-04-18T02:23:23.556Z,8.65
2023-04-18T02:25:52.420Z,8.64
2023-04-18T02:28:20.947Z,8.58
2023-04-18T02:30:52.304Z,8.52
2023-04-18T02:33:23.473Z,8.45
2023-04-18T02:35:53.602Z,8.40
2023-04-18T02:38:21.992Z,8.35
2023-04-18T02:40:53.520Z,8.37
2023-04-18T02:43:22.403Z,8.34
2023-04-18T02:45:52.489Z,8.33
2023-04-18T02:48:27.188Z,8.32
2023-04-18T02:51:01.622Z,8.33
2023-04-18T02:53:34.507Z,8.31
2023-04-18T02:56:03.092Z,8.31
2023-04-18T02:58:50.078Z,8.32
2023-04-18T03:01:37.654Z,8.31
2023-04-18T03:04:15.128Z,8.29
2023-04-18T03:06:46.289Z,8.27
2023-04-18T03:09:16.943Z,8.25
2023-04-18T03:11:49.105Z,8.22
2023-04-18T03:14:18.099Z,8.19
2023-04-18T03:16:57.143Z,8.14
2023-04-18T03:19:32.747Z,8.08
2023-04-18T03:22:06.206Z,8.08
2023-04-18T03:24:35.046Z,8.07
2023-04-18T03:27:04.241Z,8.02
2023-04-18T03:29:32.765Z,7.96
2023-04-18T03:32:01.266Z,7.91
2023-04-18T03:34:30.360Z,7.88
2023-04-18T03:36:58.965Z,7.85
2023-04-18T03:39:28.318Z,7.82
2023-04-18T03:41:57.449Z,7.78
2023-04-18T03:44:26.026Z,7.74
2023-04-18T03:46:57.588Z,7.69
2023-04-18T03:49:31.824Z,7.66
2023-04-18T03:52:00.419Z,7.62
2023-04-18T03:54:28.878Z,7.58
2023-04-18T03:56:59.484Z,7.54
2023-04-18T03:59:28.189Z,7.51
2023-04-18T04:01:56.821Z,7.51
2023-04-18T04:04:26.444Z,7.53
2023-04-18T04:06:55.065Z,7.57
2023-04-18T04:09:23.531Z,7.57
2023-04-18T04:11:51.995Z,7.58
2023-04-18T04:14:20.494Z,7.58
2023-04-18T04:16:49.937Z,7.58
2023-04-18T04:19:18.573Z,7.59
2023-04-18T04:21:53.608Z,7.60
2023-04-18T04:24:23.668Z,7.62
2023-04-18T04:26:53.412Z,7.65
2023-04-18T04:29:29.239Z,7.68
2023-04-18T04:31:59.863Z,7.71
2023-04-18T04:34:34.544Z,7.76
2023-04-18T04:37:05.574Z,7.82
2023-04-18T04:39:37.885Z,7.91
2023-04-18T04:42:32.849Z,8.01
2023-04-18T04:45:09.661Z,8.03
2023-04-18T04:47:38.191Z,8.00
2023-04-18T04:50:08.559Z,7.96
2023-04-18T04:52:36.903Z,7.95
2023-04-18T04:55:05.752Z,7.98
2023-04-18T04:57:36.013Z,8.03
2023-04-18T05:00:11.541Z,8.09
2023-04-18T05:02:39.917Z,8.15
2023-04-18T05:05:08.935Z,8.17
2023-04-18T05:07:37.386Z,8.18
2023-04-18T05:10:06.296Z,8.24
2023-04-18T05:12:34.710Z,8.28
2023-04-18T05:15:03.830Z,8.32
2023-04-18T05:17:32.339Z,8.37
2023-04-18T05:20:01.275Z,8.45
2023-04-18T05:22:29.734Z,8.55
2023-04-18T05:24:58.180Z,8.67
2023-04-18T05:27:26.727Z,8.76
2023-04-18T05:29:55.444Z,8.84
2023-04-18T05:32:23.963Z,8.91
2023-04-18T05:34:52.510Z,8.98
2023-04-18T05:37:22.459Z,9.06
2023-04-18T05:39:51.043Z,9.12
2023-04-18T05:42:19.626Z,9.16
2023-04-18T05:44:48.134Z,9.19
2023-04-18T05:47:16.604Z,9.22
2023-04-18T05:49:47.692Z,9.26
2023-04-18T05:52:16.174Z,9.30
2023-04-18T05:54:44.646Z,9.33
2023-04-18T05:57:13.070Z,9.35
2023-04-18T05:59:41.580Z,9.39
2023-04-18T06:02:13.702Z,9.43
2023-04-18T06:04:43.110Z,9.47
2023-04-18T06:07:11.698Z,9.50
2023-04-18T06:09:40.354Z,9.55
2023-04-18T06:12:08.797Z,9.58
2023-04-18T06:14:37.248Z,9.66
2023-04-18T06:17:07.537Z,9.73
2023-04-18T06:19:36.011Z,9.79
2023-04-18T06:22:04.487Z,9.86
2023-04-18T06:24:32.954Z,9.93
2023-04-18T06:27:02.131Z,9.98
2023-04-18T06:29:33.325Z,10.06
2023-04-18T06:32:01.960Z,10.16
2023-04-18T06:34:30.617Z,10.25
2023-04-18T06:36:59.642Z,10.38
2023-04-18T06:39:28.204Z,10.50
2023-04-18T06:41:58.890Z,10.66
2023-04-18T06:44:32.350Z,10.85
2023-04-18T06:47:00.905Z,11.02
2023-04-18T06:49:29.560Z,11.14
2023-04-18T06:51:58.178Z,11.22
2023-04-18T06:54:26.702Z,11.20
2023-04-18T06:56:55.234Z,11.28
2023-04-18T06:59:23.619Z,11.41
2023-04-18T07:01:52.042Z,11.55
2023-04-18T07:04:21.005Z,11.68
2023-04-18T07:06:52.145Z,11.81
2023-04-18T07:09:20.859Z,11.95
2023-04-18T07:11:51.061Z,12.09
2023-04-18T07:14:23.239Z,12.21
2023-04-18T07:16:51.980Z,12.40
2023-04-18T07:19:20.510Z,12.65
2023-04-18T07:21:48.850Z,12.93
2023-04-18T07:24:17.328Z,13.19
2023-04-18T07:26:45.833Z,13.22
2023-04-18T07:29:14.371Z,13.43
2023-04-18T07:31:42.809Z,13.65
2023-04-18T07:34:14.954Z,13.69
2023-04-18T07:36:44.322Z,13.70
2023-04-18T07:39:14.936Z,13.71
2023-04-18T07:41:43.581Z,13.76
2023-04-18T07:44:12.210Z,13.90
2023-04-18T07:46:41.059Z,13.86
2023-04-18T07:49:09.589Z,13.89
2023-04-18T07:51:38.038Z,14.07
2023-04-18T07:54:06.512Z,14.18
2023-04-18T07:56:35.102Z,14.22
2023-04-18T07:59:03.696Z,14.20
2023-04-18T08:01:32.994Z,14.13
2023-04-18T08:04:02.328Z,14.05
2023-04-18T08:06:31.220Z,14.01
2023-04-18T08:09:06.069Z,14.00
2023-04-18T08:11:35.405Z,14.00
2023-04-18T08:14:03.865Z,14.06
2023-04-18T08:16:32.437Z,14.07
2023-04-18T08:19:00.806Z,14.04
2023-04-18T08:21:29.554Z,14.09
2023-04-18T08:23:58.315Z,14.11
2023-04-18T08:26:27.318Z,14.14
2023-04-18T08:28:55.791Z,14.06
2023-04-18T08:31:24.478Z,13.99
2023-04-18T08:33:52.968Z,14.11
2023-04-18T08:36:21.689Z,14.16
2023-04-18T08:38:50.141Z,14.22
2023-04-18T08:41:23.486Z,14.30
2023-04-18T08:43:52.014Z,14.23
2023-04-18T08:46:20.643Z,14.16
2023-04-18T08:48:51.742Z,14.16
2023-04-18T08:51:23.162Z,14.19
2023-04-18T08:53:51.960Z,14.17
2023-04-18T08:56:26.074Z,14.18
2023-04-18T08:58:56.607Z,14.32
2023-04-18T09:01:57.804Z,14.46
2023-04-18T09:04:39.955Z,14.51
2023-04-18T09:07:14.819Z,14.58
2023-04-18T09:09:46.450Z,14.70
2023-04-18T09:12:22.890Z,14.78
2023-04-18T09:15:16.115Z,14.89
2023-04-18T09:17:51.100Z,14.98
2023-04-18T09:20:44.008Z,14.99
2023-04-18T09:23:23.634Z,14.94
2023-04-18T09:25:53.425Z,14.98
2023-04-18T09:28:30.163Z,15.02
2023-04-18T09:31:13.192Z,14.99
2023-04-18T09:33:54.423Z,14.97
2023-04-18T09:36:27.496Z,14.96
2023-04-18T09:38:57.269Z,14.94
2023-04-18T09:41:28.086Z,14.93
2023-04-18T09:44:15.093Z,14.90
2023-04-18T09:46:47.383Z,14.80
2023-04-18T09:49:17.660Z,14.86
2023-04-18T09:51:46.887Z,14.95
2023-04-18T09:54:18.636Z,15.04
2023-04-18T09:56:50.707Z,15.06
2023-04-18T09:59:37.787Z,15.09
2023-04-18T10:02:14.853Z,15.09
2023-04-18T10:04:47.048Z,15.09
2023-04-18T10:07:17.548Z,15.06
2023-04-18T10:09:47.145Z,15.10
2023-04-18T10:12:18.670Z,15.21
2023-04-18T10:14:47.341Z,15.23
2023-04-18T10:17:16.554Z,15.30
2023-04-18T10:19:47.132Z,15.38
2023-04-18T10:22:28.036Z,15.42
2023-04-18T10:24:57.262Z,15.39
2023-04-18T10:28:05.026Z,15.34
2023-04-18T10:30:40.530Z,15.30
2023-04-18T10:33:31.941Z,15.36
2023-04-18T10:36:02.334Z,15.35
2023-04-18T10:38:32.250Z,15.42
2023-04-18T10:41:34.401Z,15.55
2023-04-18T10:44:11.866Z,15.55
2023-04-18T10:46:42.856Z,15.56
2023-04-18T10:49:19.840Z,15.56
2023-04-18T10:51:53.462Z,15.59
2023-04-18T10:54:40.875Z,15.62
2023-04-18T10:57:10.511Z,15.60
2023-04-18T10:59:41.731Z,15.61
2023-04-18T11:02:30.503Z,15.62
2023-04-18T11:05:04.765Z,15.71
2023-04-18T11:07:39.210Z,15.74
2023-04-18T11:10:09.917Z,15.67
2023-04-18T11:12:41.188Z,15.69
2023-04-18T11:15:14.568Z,15.80
2023-04-18T11:21:10.289Z,16.07
2023-04-18T11:23:38.710Z,16.05
2023-04-18T11:26:07.799Z,16.15
2023-04-18T11:28:36.310Z,16.02
2023-04-18T11:31:04.964Z,15.91
2023-04-18T11:33:33.443Z,15.92
2023-04-18T11:36:02.998Z,16.07
2023-04-18T11:38:31.579Z,16.22
2023-04-18T11:41:03.192Z,16.28
2023-04-18T11:43:31.759Z,16.28
2023-04-18T11:46:00.816Z,16.34
2023-04-18T11:48:42.980Z,16.11
2023-04-18T11:51:36.009Z,16.00
2023-04-18T11:54:04.941Z,15.92
2023-04-18T11:56:35.280Z,15.92
2023-04-18T11:59:11.225Z,15.92
2023-04-18T12:01:42.690Z,15.82
2023-04-18T12:04:11.619Z,15.97
2023-04-18T12:06:54.002Z,16.16
2023-04-18T12:09:25.058Z,16.22
2023-04-18T12:12:06.561Z,16.20
2023-04-18T12:14:36.470Z,16.02
2023-04-18T12:17:07.525Z,15.92
2023-04-18T12:19:38.095Z,15.89
2023-04-18T12:22:10.891Z,15.78
2023-04-18T12:24:39.305Z,15.72
2023-04-18T12:27:07.825Z,15.73
2023-04-18T12:29:36.288Z,15.74
2023-04-18T12:32:04.959Z,15.69
2023-04-18T12:34:33.435Z,15.67
2023-04-18T12:37:03.881Z,15.73
2023-04-18T12:39:32.411Z,15.81
2023-04-18T12:42:01.227Z,15.82
2023-04-18T12:44:29.808Z,15.86
2023-04-18T12:46:58.303Z,15.92
2023-04-18T12:49:29.978Z,15.89
2023-04-18T12:51:58.479Z,15.95
2023-04-18T12:54:29.190Z,16.07
2023-04-18T12:56:57.748Z,16.16
2023-04-18T12:59:26.202Z,16.20
2023-04-18T13:01:54.674Z,16.19
2023-04-18T13:04:23.287Z,16.15
2023-04-18T13:06:52.213Z,16.06
2023-04-18T13:09:20.647Z,16.02
2023-04-18T13:11:49.692Z,16.02
2023-04-18T13:14:18.586Z,16.06
2023-04-18T13:16:48.852Z,16.08
2023-04-18T13:19:17.424Z,16.09
2023-04-18T13:21:47.778Z,16.09
2023-04-18T13:24:17.758Z,16.03
2023-04-18T13:26:49.246Z,15.98
2023-04-18T13:29:17.863Z,15.93
2023-04-18T13:31:46.455Z,15.89
2023-04-18T13:34:14.912Z,15.98
2023-04-18T13:36:43.310Z,16.04
2023-04-18T13:39:12.482Z,16.06
2023-04-18T13:41:47.726Z,15.99
2023-04-18T13:44:16.230Z,16.03
2023-04-18T13:46:44.674Z,16.01
2023-04-18T13:49:19.984Z,16.01
2023-04-18T13:51:50.754Z,16.12
2023-04-18T13:54:26.794Z,16.21
2023-04-18T13:57:04.616Z,16.33
2023-04-18T13:59:34.046Z,16.42
2023-04-18T14:02:03.009Z,16.52
2023-04-18T14:04:35.895Z,16.54
2023-04-18T14:07:07.681Z,16.46
2023-04-18T14:09:41.884Z,16.49
2023-04-18T14:12:15.900Z,16.52
2023-04-18T14:14:45.273Z,16.57
2023-04-18T14:17:14.668Z,16.63
2023-04-18T14:19:45.262Z,16.62
2023-04-18T14:22:13.835Z,16.70
2023-04-18T14:24:44.598Z,16.72
2023-04-18T14:27:13.812Z,16.71
2023-04-18T14:29:42.484Z,16.70
2023-04-18T14:32:10.972Z,16.75
2023-04-18T14:34:39.539Z,16.83
2023-04-18T14:37:12.239Z,16.94
2023-04-18T14:39:41.323Z,17.09
2023-04-18T14:42:09.843Z,17.31
2023-04-18T14:44:38.411Z,17.53
2023-04-18T14:47:06.957Z,17.58
2023-04-18T14:49:35.525Z,17.54
2023-04-18T14:52:09.763Z,17.46
2023-04-18T14:54:38.369Z,17.48
2023-04-18T14:57:08.584Z,17.50
2023-04-18T14:59:39.336Z,17.47
2023-04-18T15:02:07.939Z,17.43
2023-04-18T15:04:36.651Z,17.42
2023-04-18T15:07:05.141Z,17.31
2023-04-18T15:09:39.622Z,17.23
2023-04-18T15:12:08.258Z,17.17
2023-04-18T15:14:37.697Z,17.09
2023-04-18T15:17:12.495Z,16.97
2023-04-18T15:19:40.930Z,16.80
2023-04-18T15:22:12.491Z,16.69
2023-04-18T15:24:41.509Z,16.57
2023-04-18T15:27:13.121Z,16.46
2023-04-18T15:29:46.307Z,16.43
2023-04-18T15:32:21.197Z,16.37
2023-04-18T15:34:49.812Z,16.28
2023-04-18T15:37:21.786Z,16.22
2023-04-18T15:39:50.317Z,16.16
2023-04-18T15:42:18.986Z,16.12
2023-04-18T15:44:52.637Z,16.06
2023-04-18T15:47:21.301Z,15.98
2023-04-18T15:49:50.142Z,15.92
2023-04-18T15:52:18.649Z,15.86
2023-04-18T15:54:47.077Z,15.79
2023-04-18T15:57:16.039Z,15.72
2023-04-18T15:59:44.540Z,15.67
2023-04-18T16:02:13.291Z,15.64
2023-04-18T16:04:41.839Z,15.57
2023-04-18T16:07:11.890Z,15.47
2023-04-18T16:09:42.504Z,15.42
2023-04-18T16:12:16.398Z,15.40
2023-04-18T16:14:45.072Z,15.35
2023-04-18T16:17:13.708Z,15.28
2023-04-18T16:19:44.274Z,15.16
2023-04-18T16:22:13.363Z,15.07
2023-04-18T16:24:42.258Z,15.00
2023-04-18T16:27:10.957Z,14.92
2023-04-18T16:29:39.483Z,14.86
2023-04-18T16:32:08.651Z,14.77
2023-04-18T16:34:39.434Z,14.69
2023-04-18T16:37:07.945Z,14.62
2023-04-18T16:39:36.858Z,14.56
2023-04-18T16:42:05.837Z,14.48
2023-04-18T16:44:34.397Z,14.42
2023-04-18T16:47:08.688Z,14.35
2023-04-18T16:49:41.328Z,14.27
2023-04-18T16:52:09.709Z,14.21
2023-04-18T16:54:38.592Z,14.14
2023-04-18T16:57:07.761Z,14.07
2023-04-18T16:59:36.463Z,14.01
2023-04-18T17:02:12.928Z,13.93
2023-04-18T17:04:47.664Z,13.88
2023-04-18T17:07:16.569Z,13.82
2023-04-18T17:09:45.042Z,13.79
2023-04-18T17:12:13.514Z,13.78
2023-04-18T17:14:42.055Z,13.74
2023-04-18T17:17:10.838Z,13.71
2023-04-18T17:19:40.409Z,13.68
2023-04-18T17:22:09.095Z,13.65
2023-04-18T17:24:37.784Z,13.61
2023-04-18T17:27:06.548Z,13.56
2023-04-18T17:29:37.503Z,13.52
2023-04-18T17:32:06.116Z,13.48
2023-04-18T17:34:34.700Z,13.43
2023-04-18T17:37:08.330Z,13.41
2023-04-18T17:39:36.779Z,13.40
2023-04-18T17:42:11.749Z,13.38
2023-04-18T17:44:43.160Z,13.39
2023-04-18T17:47:12.954Z,13.39
2023-04-18T17:49:41.476Z,13.39
2023-04-18T17:52:09.927Z,13.36
2023-04-18T17:54:38.451Z,13.34
2023-04-18T17:57:07.240Z,13.32
2023-04-18T17:59:37.935Z,13.28
2023-04-18T18:02:07.171Z,13.24
2023-04-18T18:04:35.999Z,13.21
2023-04-18T18:07:07.803Z,13.20
2023-04-18T18:09:40.976Z,13.17
2023-04-18T18:12:12.673Z,13.13
2023-04-18T18:14:43.481Z,13.10
2023-04-18T18:17:12.069Z,13.07
2023-04-18T18:19:43.633Z,13.05
2023-04-18T18:22:16.059Z,13.04
2023-04-18T18:24:48.312Z,13.02
2023-04-18T18:27:20.644Z,12.99
2023-04-18T18:29:50.598Z,12.96
2023-04-18T18:32:19.146Z,12.94
2023-04-18T18:34:47.589Z,12.93
2023-04-18T18:37:16.042Z,12.94
2023-04-18T18:39:46.791Z,12.94
2023-04-18T18:42:16.182Z,12.94
2023-04-18T18:44:44.742Z,12.93
2023-04-18T18:47:13.704Z,12.93
2023-04-18T18:49:44.843Z,12.93
2023-04-18T18:52:16.250Z,12.92
2023-04-18T18:54:45.229Z,12.91
2023-04-18T18:57:13.781Z,12.89
2023-04-18T18:59:45.032Z,12.86
2023-04-18T19:02:13.608Z,12.84
2023-04-18T19:04:42.368Z,12.82
2023-04-18T19:07:11.805Z,12.80
2023-04-18T19:09:42.845Z,12.78
2023-04-18T19:12:11.437Z,12.75
2023-04-18T19:14:41.292Z,12.73
2023-04-18T19:17:11.194Z,12.71
2023-04-18T19:19:39.877Z,12.70
2023-04-18T19:22:08.873Z,12.68
2023-04-18T19:24:37.444Z,12.64
2023-04-18T19:27:05.923Z,12.60
2023-04-18T19:29:39.988Z,12.58
2023-04-18T19:32:11.114Z,12.57
2023-04-18T19:34:39.783Z,12.57
2023-04-18T19:37:11.136Z,12.61
2023-04-18T19:39:42.885Z,12.62
2023-04-18T19:42:14.530Z,12.61
2023-04-18T19:44:43.161Z,12.61
2023-04-18T19:47:11.836Z,12.59
2023-04-18T19:49:40.490Z,12.57
2023-04-18T19:52:09.124Z,12.53
2023-04-18T19:54:37.901Z,12.50
2023-04-18T19:57:06.609Z,12.47
2023-04-18T19:59:35.177Z,12.44
2023-04-18T20:05:28.910Z,12.38
2023-04-18T20:07:57.619Z,12.28
2023-04-18T20:10:26.382Z,12.22
2023-04-18T20:12:54.913Z,12.16
2023-04-18T20:15:23.477Z,12.11
2023-04-18T20:17:51.966Z,12.07
2023-04-18T20:20:20.702Z,12.04
2023-04-18T20:22:49.522Z,12.04
2023-04-18T20:25:18.725Z,12.04
2023-04-18T20:27:47.427Z,12.03
2023-04-18T20:30:16.245Z,12.02
2023-04-18T20:32:44.791Z,11.98
2023-04-18T20:35:13.447Z,11.94
2023-04-18T20:37:42.805Z,11.93
2023-04-18T20:40:11.609Z,11.92
2023-04-18T20:42:43.179Z,11.91
2023-04-18T20:45:12.102Z,11.88
2023-04-18T20:47:43.888Z,11.85
2023-04-18T20:50:18.465Z,11.79
2023-04-18T20:52:47.787Z,11.75
2023-04-18T20:55:17.071Z,11.72
2023-04-18T20:57:45.684Z,11.69
2023-04-18T21:00:14.363Z,11.65
2023-04-18T21:02:44.468Z,11.62
2023-04-18T21:05:13.282Z,11.59
2023-04-18T21:07:43.493Z,11.54
2023-04-18T21:10:13.455Z,11.49
2023-04-18T21:12:46.440Z,11.44
2023-04-18T21:15:15.021Z,11.40
2023-04-18T21:17:43.674Z,11.35
2023-04-18T21:20:12.146Z,11.33
2023-04-18T21:22:40.705Z,11.31
2023-04-18T21:25:09.814Z,11.28
2023-04-18T21:27:38.503Z,11.31
2023-04-18T21:30:07.881Z,11.36
2023-04-18T21:32:36.762Z,11.29
2023-04-18T21:35:06.180Z,11.25
2023-04-18T21:37:34.764Z,11.29
2023-04-18T21:40:04.750Z,11.31
2023-04-18T21:42:35.415Z,11.34
2023-04-18T21:45:04.826Z,11.31
2023-04-18T21:47:33.408Z,11.28
2023-04-18T21:50:04.362Z,11.26
2023-04-18T21:52:33.304Z,11.24
2023-04-18T21:55:02.273Z,11.25
2023-04-18T21:57:31.004Z,11.26
2023-04-18T22:00:00.019Z,11.26
2023-04-18T22:02:28.687Z,11.24
2023-04-18T22:04:57.400Z,11.22
2023-04-18T22:07:26.570Z,11.19
2023-04-18T22:09:55.083Z,11.16
2023-04-18T22:12:24.685Z,11.14
2023-04-18T22:14:53.459Z,11.12
2023-04-18T22:17:22.228Z,11.11
2023-04-18T22:19:51.050Z,11.11
2023-04-18T22:22:20.070Z,11.06
2023-04-18T22:24:48.671Z,11.02
2023-04-18T22:27:17.396Z,11.01
2023-04-18T22:29:48.934Z,11.01
2023-04-18T22:32:17.441Z,10.95
2023-04-18T22:34:51.455Z,10.89
2023-04-18T22:37:19.944Z,10.88
2023-04-18T22:39:48.807Z,10.88
2023-04-18T22:42:17.284Z,10.89
2023-04-18T22:44:48.845Z,10.90
2023-04-18T22:47:17.417Z,10.85
2023-04-18T22:49:46.218Z,10.82
2023-04-18T22:52:15.721Z,10.79
2023-04-18T22:54:44.117Z,10.73
2023-04-18T22:57:15.775Z,10.68
2023-04-18T22:59:49.483Z,10.63
2023-04-18T23:02:18.031Z,10.62
2023-04-18T23:04:53.554Z,10.63
2023-04-18T23:07:22.177Z,10.62
2023-04-18T23:09:50.756Z,10.59
2023-04-18T23:12:19.850Z,10.59
2023-04-18T23:14:48.534Z,10.57
2023-04-18T23:17:17.034Z,10.51
2023-04-18T23:19:45.614Z,10.53
2023-04-18T23:22:14.193Z,10.59
2023-04-18T23:24:42.618Z,10.62
2023-04-18T23:27:14.073Z,10.60
2023-04-18T23:29:43.007Z,10.59
2023-04-18T23:32:13.833Z,10.58
2023-04-18T23:34:42.732Z,10.57
2023-04-18T23:37:11.314Z,10.55
2023-04-18T23:39:44.613Z,10.52
2023-04-18T23:42:27.123Z,10.52
2023-04-18T23:45:00.621Z,10.50
2023-04-18T23:47:32.186Z,10.42
2023-04-18T23:50:05.470Z,10.36
2023-04-18T23:52:40.820Z,10.36
2023-04-18T23:55:15.234Z,10.39
2023-04-18T23:57:46.574Z,10.38
